Terminal Aerodrome Forecast
Issued by NWS

Home | Current Version | Previous Version | Text Only | Print | Product List | Glossary On
Versions: 1 2 3 4 5 6 7 8 9 10 11 12 13 14 15 16 17 18 19 20 21 22 23 24
000
FTUS41 KALY 270559 AAA
TAFPSF
TAF AMD
KPSF 270559Z 2706/2806 30005KT P6SM BKN008 OVC020
      TEMPO 2706/2710 2SM -SNRA BR BKN002
     FM271200 31008KT P6SM SCT020 OVC030
     FM271600 32010G18KT P6SM VCSH OVC035
     FM280000 31006KT P6SM SCT035 OVC100=

USA.gov is the U.S. government's official web portal to all federal, state and local government web resources and services.